BKA weather

CLOSED Bykovo Airport
Moscow, Moscow Oblast, Russia

Public forecast

Using degrees Celsius for public forecast. Weather courtesy of forecast.io.

METAR (pilot weather report)

Closest report is Zhukovsky International Airport, 4.9 nm (9.1 km) SE. Retrieved 2019/04/19 16:00 UTC (6 minutes ago):

UUBW 191600Z 29001MPS CAVOK 11/M06 Q1027 R30/010060 NOSIG

TAF (pilot weather forecast)

Closest forecast is Zhukovsky International Airport, 4.9 nm (9.1 km) SE. Retrieved 2019/04/19 15:00 UTC (1 hour ago):

TAF UUBW 191351Z 1915/2015 VRB01MPS CAVOK TX14/2012Z TN02/2002Z=